Aérodrome :
LOGIN :

S'inscrire | Disclaimer

   EN    FR    IT 

 










Légende :    VFR   VFR Marginal   IFR   IFR Intensif   IFR Très Intensif
Visi : 
Plafond : 
>= 8 km
>= 3000ft
5 à 8 km
1000 à 3000 ft
1500m à 5 km
500 à 1000 ft
800 à 1500m
200 à 500 ft
< 800m
< 200 ft
Symboles :   Orages  Brouillard  Fortes neiges  Fortes précipitations  Vent > 20 kt
SIGMETs :   Divers  Orages  Givrage  Turbulence  Onde Orograph.  Cendres Volcan.







- Altitude de l'aérodrome : 2776 ft
- Code IATA : VLL


LEVD - Valladolid

DERNIER METAR :
  • 190800Z 08003KT 6000 -RA SCT003 BKN035 04/04 Q1019 REDZ

METARs EXPIRÉS :
  • 190730Z 10003KT 9000 DZ FEW004 OVC035 04/04 Q1019
  • 190700Z 08004KT 050V110 9999 DZ FEW004 BKN029 04/04 Q1019
  • 190630Z 07006KT 9999 OVC034 05/04 Q1018
  • 190618Z 06007KT 9999 OVC037 05/04 Q1018 RERA
  • 190600Z 07007KT 8000 RA BKN038 05/04 Q1018

TAF AMD TAF LEVD
Valide du 19 à 07h jusqu'au 20 à 06h UTC


190747Z 1907/2006 VRB05KT CAVOK TX13/1915Z TN02/2006Z
PROB40
TEMPO 1907/1910 3000 BR BKN006
PROB30
TEMPO 1907/1918 RA BKN014
TEMPO 2000/2006 3000 BR BKN006
PROB40
TEMPO 2004/2006 0100 FG VV001
Pas de NOTAMs connus pour ce terrain.
2 SIGMETs publiés pour la FIR Madrid (LECM) :
 
Turbulence forte
LECM SIGMET 2 VALID 190800/191200 LEVA
LECM MADRID FIR/UIR SEV TURB FCST WI N4414 W00342 - N3710 W00740 - N3556 W00727 - N3553 W00620 - N4258 W00119 - N4414 W00342 FL180/300 MOV E 5KT NC=
Turbulence forte
LECM SIGMET 1 VALID 190400/190800 LEVA
LECM MADRID FIR/UIR SEV TURB FCST WI N4410 W00339 - N4002 W00653 - N3708 W00723 - N3626 W00625 - N4326 W00143 - N4410 W00339 FL180/300 MOV E 20KT NC=



MET'MAP, la Météo Aéronautique d'un coup d'oeil ! - Copyright ORBIFLY Décembre 2007 - Disclaimer

ORBIFLY MET'MAP TEAM :

Programmation & Développement : Alexandra Zaïnal
Conception & Développement : Baudouin d'Aumeries
Co-Programmation & Développement : Marc-Olivier Méhu
Soutien technique & logistique : Manuel Goepfert

Contact : metmap@orbifly.com




SOURCES & CREDITS :

   NOAA